sensor_id;sensor_type;location;lat;lon;timestamp;pressure;altitude;pressure_sealevel;temperature;humidity
59654;BME280;66556;52.008;5.432;2023-01-29T00:01:31;103007.0;;;19.12;30.87
59654;BME280;66556;52.008;5.432;2023-01-29T00:03:08;103008.0;;;19.54;30.0
59654;BME280;66556;52.008;5.432;2023-01-29T00:04:45;103007.0;;;19.62;29.56
59654;BME280;66556;52.008;5.432;2023-01-29T00:08:00;103008.99999999999;;;19.96;28.77
59654;BME280;66556;52.008;5.432;2023-01-29T00:09:37;103009.99999999999;;;18.7;30.79
59654;BME280;66556;52.008;5.432;2023-01-29T00:11:15;103008.0;;;19.21;30.06
59654;BME280;66556;52.008;5.432;2023-01-29T00:14:29;103007.0;;;18.86;30.48
59654;BME280;66556;52.008;5.432;2023-01-29T00:16:06;102997.0;;;18.5;31.14
59654;BME280;66556;52.008;5.432;2023-01-29T00:17:43;102997.0;;;18.22;31.42
59654;BME280;66556;52.008;5.432;2023-01-29T00:19:20;102996.0;;;17.59;32.86
59654;BME280;66556;52.008;5.432;2023-01-29T00:22:34;102997.0;;;17.3;33.4
59654;BME280;66556;52.008;5.432;2023-01-29T00:24:10;102991.00000000001;;;18.27;32.03
59654;BME280;66556;52.008;5.432;2023-01-29T00:25:47;102986.99999999999;;;18.22;31.78
59654;BME280;66556;52.008;5.432;2023-01-29T00:29:01;102983.0;;;17.66;32.74
59654;BME280;66556;52.008;5.432;2023-01-29T00:30:39;102976.0;;;17.68;32.89
59654;BME280;66556;52.008;5.432;2023-01-29T00:32:15;102976.0;;;18.14;32.24
59654;BME280;66556;52.008;5.432;2023-01-29T00:35:29;102976.0;;;17.16;34.06
59654;BME280;66556;52.008;5.432;2023-01-29T00:37:07;102974.0;;;17.14;33.6
59654;BME280;66556;52.008;5.432;2023-01-29T00:38:45;102970.0;;;17.73;33.11
59654;BME280;66556;52.008;5.432;2023-01-29T00:40:22;102969.0;;;17.56;33.42
59654;BME280;66556;52.008;5.432;2023-01-29T00:46:09;102972.0;;;16.75;35.03
59654;BME280;66556;52.008;5.432;2023-01-29T00:47:47;102976.0;;;17.07;34.96
59654;BME280;66556;52.008;5.432;2023-01-29T00:49:24;102978.0;;;16.8;35.25
59654;BME280;66556;52.008;5.432;2023-01-29T00:51:02;102976.0;;;16.54;35.79
59654;BME280;66556;52.008;5.432;2023-01-29T00:54:18;102981.0;;;16.73;35.56
59654;BME280;66556;52.008;5.432;2023-01-29T00:55:54;102978.0;;;17.06;35.03
59654;BME280;66556;52.008;5.432;2023-01-29T00:57:33;102982.0;;;17.16;34.46
59654;BME280;66556;52.008;5.432;2023-01-29T00:59:10;102981.0;;;17.68;33.43
59654;BME280;66556;52.008;5.432;2023-01-29T01:03:29;102983.0;;;17.02;34.78
59654;BME280;66556;52.008;5.432;2023-01-29T01:05:08;102980.0;;;17.48;34.15
59654;BME280;66556;52.008;5.432;2023-01-29T01:06:51;102975.0;;;17.52;34.0
59654;BME280;66556;52.008;5.432;2023-01-29T01:10:57;102969.0;;;18.34;32.62
59654;BME280;66556;52.008;5.432;2023-01-29T01:12:34;102965.00000000001;;;17.75;33.14
59654;BME280;66556;52.008;5.432;2023-01-29T01:14:10;102958.0;;;17.77;33.14
59654;BME280;66556;52.008;5.432;2023-01-29T01:17:24;102950.0;;;18.07;33.0
59654;BME280;66556;52.008;5.432;2023-01-29T01:19:02;102955.0;;;18.05;32.85
59654;BME280;66556;52.008;5.432;2023-01-29T01:20:39;102957.0;;;17.84;33.1
59654;BME280;66556;52.008;5.432;2023-01-29T01:22:16;102958.0;;;17.36;34.35
59654;BME280;66556;52.008;5.432;2023-01-29T01:25:29;102958.99999999999;;;17.62;34.01
59654;BME280;66556;52.008;5.432;2023-01-29T01:27:07;102947.0;;;18.45;32.47
59654;BME280;66556;52.008;5.432;2023-01-29T01:28:43;102945.0;;;18.43;32.22
59654;BME280;66556;52.008;5.432;2023-01-29T01:31:58;102948.0;;;18.75;31.94
59654;BME280;66556;52.008;5.432;2023-01-29T01:33:36;102944.0;;;18.87;31.64
59654;BME280;66556;52.008;5.432;2023-01-29T01:35:14;102947.0;;;18.36;32.28
59654;BME280;66556;52.008;5.432;2023-01-29T01:36:51;102953.0;;;18.52;32.1
59654;BME280;66556;52.008;5.432;2023-01-29T01:40:14;102950.0;;;18.56;31.95
59654;BME280;66556;52.008;5.432;2023-01-29T01:41:54;102954.0;;;17.96;32.74
59654;BME280;66556;52.008;5.432;2023-01-29T01:43:46;102964.00000000001;;;17.89;32.96
59654;BME280;66556;52.008;5.432;2023-01-29T01:45:26;102964.00000000001;;;18.11;32.37
59654;BME280;66556;52.008;5.432;2023-01-29T01:48:41;102967.0;;;17.38;33.78
59654;BME280;66556;52.008;5.432;2023-01-29T01:50:22;102961.99999999999;;;16.86;34.39
59654;BME280;66556;52.008;5.432;2023-01-29T01:52:03;102969.0;;;17.2;34.47
59654;BME280;66556;52.008;5.432;2023-01-29T01:53:43;102969.0;;;16.27;36.28
59654;BME280;66556;52.008;5.432;2023-01-29T01:57:11;102975.0;;;16.93;35.03
59654;BME280;66556;52.008;5.432;2023-01-29T01:58:53;102972.0;;;17.03;34.97
59654;BME280;66556;52.008;5.432;2023-01-29T02:00:32;102967.0;;;17.11;34.42
59654;BME280;66556;52.008;5.432;2023-01-29T02:10:30;102971.0;;;17.3;34.07
59654;BME280;66556;52.008;5.432;2023-01-29T02:13:52;102965.00000000001;;;17.59;34.04
59654;BME280;66556;52.008;5.432;2023-01-29T02:15:29;102961.99999999999;;;16.73;35.1
59654;BME280;66556;52.008;5.432;2023-01-29T02:17:09;102965.00000000001;;;16.56;35.57
59654;BME280;66556;52.008;5.432;2023-01-29T02:18:48;102969.0;;;16.13;36.72
59654;BME280;66556;52.008;5.432;2023-01-29T02:22:15;102955.0;;;17.05;34.92
59654;BME280;66556;52.008;5.432;2023-01-29T02:24:13;102951.0;;;17.86;33.62
59654;BME280;66556;52.008;5.432;2023-01-29T02:26:20;102955.0;;;17.78;33.56
59654;BME280;66556;52.008;5.432;2023-01-29T02:28:31;102957.0;;;17.52;34.12
59654;BME280;66556;52.008;5.432;2023-01-29T02:30:16;102953.0;;;17.61;33.85
59654;BME280;66556;52.008;5.432;2023-01-29T02:32:08;102947.0;;;17.87;33.42
59654;BME280;66556;52.008;5.432;2023-01-29T02:33:58;102952.0;;;18.37;32.36
59654;BME280;66556;52.008;5.432;2023-01-29T02:35:53;102951.0;;;18.29;32.72
59654;BME280;66556;52.008;5.432;2023-01-29T02:37:38;102958.99999999999;;;17.16;34.5
59654;BME280;66556;52.008;5.432;2023-01-29T02:41:07;102953.0;;;16.93;34.5
59654;BME280;66556;52.008;5.432;2023-01-29T02:42:56;102957.0;;;17.22;33.85
59654;BME280;66556;52.008;5.432;2023-01-29T02:44:39;102965.00000000001;;;17.57;33.3
59654;BME280;66556;52.008;5.432;2023-01-29T02:46:22;102968.0;;;17.0;34.32
59654;BME280;66556;52.008;5.432;2023-01-29T02:48:04;102967.0;;;16.93;34.72
59654;BME280;66556;52.008;5.432;2023-01-29T02:51:30;102969.0;;;17.28;33.99
59654;BME280;66556;52.008;5.432;2023-01-29T02:53:14;102974.0;;;17.56;33.3
59654;BME280;66556;52.008;5.432;2023-01-29T02:54:55;102972.0;;;17.95;32.62
59654;BME280;66556;52.008;5.432;2023-01-29T02:56:38;102964.00000000001;;;18.45;31.64
59654;BME280;66556;52.008;5.432;2023-01-29T02:58:26;102968.0;;;18.06;32.26
59654;BME280;66556;52.008;5.432;2023-01-29T03:01:53;102965.00000000001;;;18.88;30.83
59654;BME280;66556;52.008;5.432;2023-01-29T03:03:35;102967.0;;;18.52;31.55
59654;BME280;66556;52.008;5.432;2023-01-29T03:05:22;102967.0;;;18.34;31.65
59654;BME280;66556;52.008;5.432;2023-01-29T03:07:03;102967.0;;;18.41;31.68
59654;BME280;66556;52.008;5.432;2023-01-29T03:10:34;102964.00000000001;;;18.41;31.65
59654;BME280;66556;52.008;5.432;2023-01-29T03:12:28;102964.00000000001;;;18.43;31.73
59654;BME280;66556;52.008;5.432;2023-01-29T03:14:11;102958.0;;;18.7;31.42
59654;BME280;66556;52.008;5.432;2023-01-29T03:15:58;102955.0;;;18.34;31.88
59654;BME280;66556;52.008;5.432;2023-01-29T03:17:42;102958.0;;;18.39;31.93
59654;BME280;66556;52.008;5.432;2023-01-29T03:19:34;102964.00000000001;;;17.98;32.56
59654;BME280;66556;52.008;5.432;2023-01-29T03:32:15;102948.0;;;17.7;32.85
59654;BME280;66556;52.008;5.432;2023-01-29T03:33:59;102947.0;;;17.56;33.01
59654;BME280;66556;52.008;5.432;2023-01-29T03:37:37;102933.99999999999;;;16.87;34.05
59654;BME280;66556;52.008;5.432;2023-01-29T03:39:16;102932.0;;;17.63;33.05
59654;BME280;66556;52.008;5.432;2023-01-29T03:40:56;102925.0;;;16.16;35.06
59654;BME280;66556;52.008;5.432;2023-01-29T03:42:45;102922.0;;;16.82;34.53
59654;BME280;66556;52.008;5.432;2023-01-29T03:44:32;102923.0;;;16.95;33.76
59654;BME280;66556;52.008;5.432;2023-01-29T03:48:07;102915.00000000001;;;17.56;32.99
59654;BME280;66556;52.008;5.432;2023-01-29T03:49:55;102918.0;;;16.81;33.99
59654;BME280;66556;52.008;5.432;2023-01-29T03:51:37;102917.0;;;16.8;34.14
59654;BME280;66556;52.008;5.432;2023-01-29T03:53:24;102908.0;;;16.0;35.46
59654;BME280;66556;52.008;5.432;2023-01-29T03:55:11;102908.0;;;15.88;36.1
59654;BME280;66556;52.008;5.432;2023-01-29T03:58:40;102915.00000000001;;;16.96;34.42
59654;BME280;66556;52.008;5.432;2023-01-29T04:00:25;102915.00000000001;;;17.12;33.85
59654;BME280;66556;52.008;5.432;2023-01-29T04:02:06;102917.0;;;17.09;34.08
59654;BME280;66556;52.008;5.432;2023-01-29T04:03:48;102914.00000000001;;;17.29;33.46
59654;BME280;66556;52.008;5.432;2023-01-29T04:05:31;102911.99999999999;;;16.64;34.47
59654;BME280;66556;52.008;5.432;2023-01-29T04:08:58;102914.00000000001;;;16.98;34.07
59654;BME280;66556;52.008;5.432;2023-01-29T04:10:39;102915.00000000001;;;16.98;34.15
59654;BME280;66556;52.008;5.432;2023-01-29T04:12:22;102901.0;;;16.93;34.19
59654;BME280;66556;52.008;5.432;2023-01-29T04:14:03;102892.0;;;16.02;35.6
59654;BME280;66556;52.008;5.432;2023-01-29T04:17:28;102894.0;;;16.89;34.74
59654;BME280;66556;52.008;5.432;2023-01-29T04:20:48;102890.00000000001;;;16.02;36.21
59654;BME280;66556;52.008;5.432;2023-01-29T04:22:29;102884.99999999999;;;15.63;36.64
59654;BME280;66556;52.008;5.432;2023-01-29T04:24:08;102890.00000000001;;;16.22;35.74
59654;BME280;66556;52.008;5.432;2023-01-29T04:27:44;102886.99999999999;;;15.85;35.89
59654;BME280;66556;52.008;5.432;2023-01-29T04:29:40;102879.0;;;16.2;35.43
59654;BME280;66556;52.008;5.432;2023-01-29T04:31:24;102883.0;;;16.43;34.9
59654;BME280;66556;52.008;5.432;2023-01-29T04:33:11;102879.0;;;16.37;34.67
59654;BME280;66556;52.008;5.432;2023-01-29T04:34:59;102884.99999999999;;;16.52;34.5
59654;BME280;66556;52.008;5.432;2023-01-29T04:36:44;102886.99999999999;;;16.84;33.89
59654;BME280;66556;52.008;5.432;2023-01-29T04:40:25;102883.0;;;16.87;34.03
59654;BME280;66556;52.008;5.432;2023-01-29T04:42:12;102879.0;;;17.16;33.4
59654;BME280;66556;52.008;5.432;2023-01-29T04:43:59;102876.0;;;16.98;33.92
59654;BME280;66556;52.008;5.432;2023-01-29T04:45:46;102869.0;;;17.77;32.5
59654;BME280;66556;52.008;5.432;2023-01-29T04:47:35;102874.0;;;16.81;33.87
59654;BME280;66556;52.008;5.432;2023-01-29T04:49:23;102869.0;;;18.45;31.11
59654;BME280;66556;52.008;5.432;2023-01-29T04:52:56;102873.0;;;18.03;32.15
59654;BME280;66556;52.008;5.432;2023-01-29T04:54:48;102868.0;;;17.89;31.76
59654;BME280;66556;52.008;5.432;2023-01-29T04:57:17;102874.0;;;17.55;31.95
59654;BME280;66556;52.008;5.432;2023-01-29T04:59:00;102871.0;;;17.39;32.24
59654;BME280;66556;52.008;5.432;2023-01-29T05:00:42;102867.0;;;17.84;31.5
59654;BME280;66556;52.008;5.432;2023-01-29T05:02:23;102861.99999999999;;;18.25;31.07
59654;BME280;66556;52.008;5.432;2023-01-29T05:04:04;102859.99999999999;;;18.41;31.12
59654;BME280;66556;52.008;5.432;2023-01-29T05:07:25;102854.0;;;18.43;30.91
59654;BME280;66556;52.008;5.432;2023-01-29T05:09:05;102847.0;;;17.82;31.6
59654;BME280;66556;52.008;5.432;2023-01-29T05:10:43;102851.0;;;18.32;30.61
59654;BME280;66556;52.008;5.432;2023-01-29T05:12:21;102848.0;;;18.09;31.43
59654;BME280;66556;52.008;5.432;2023-01-29T05:15:44;102845.0;;;18.52;30.45
59654;BME280;66556;52.008;5.432;2023-01-29T05:17:24;102843.0;;;18.5;30.36
59654;BME280;66556;52.008;5.432;2023-01-29T05:19:02;102845.0;;;18.68;30.54
59654;BME280;66556;52.008;5.432;2023-01-29T05:20:41;102846.0;;;16.21;33.87
59654;BME280;66556;52.008;5.432;2023-01-29T05:24:08;102851.0;;;15.37;36.31
59654;BME280;66556;52.008;5.432;2023-01-29T05:25:46;102854.0;;;14.89;37.07
59654;BME280;66556;52.008;5.432;2023-01-29T05:28:28;102854.0;;;14.79;37.78
59654;BME280;66556;52.008;5.432;2023-01-29T05:30:07;102857.0;;;15.81;36.14
59654;BME280;66556;52.008;5.432;2023-01-29T05:31:45;102861.99999999999;;;15.55;35.89
59654;BME280;66556;52.008;5.432;2023-01-29T05:33:24;102867.0;;;15.5;36.1
59654;BME280;66556;52.008;5.432;2023-01-29T05:36:39;102864.00000000001;;;15.21;36.97
59654;BME280;66556;52.008;5.432;2023-01-29T05:38:17;102869.0;;;15.1;37.28
59654;BME280;66556;52.008;5.432;2023-01-29T05:39:54;102867.0;;;15.42;36.79
59654;BME280;66556;52.008;5.432;2023-01-29T05:41:32;102865.00000000001;;;15.58;36.31
59654;BME280;66556;52.008;5.432;2023-01-29T05:44:52;102865.00000000001;;;15.52;36.54
59654;BME280;66556;52.008;5.432;2023-01-29T05:46:28;102859.99999999999;;;14.54;38.29
59654;BME280;66556;52.008;5.432;2023-01-29T05:48:05;102865.00000000001;;;14.56;38.42
59654;BME280;66556;52.008;5.432;2023-01-29T05:51:19;102859.99999999999;;;14.5;38.71
59654;BME280;66556;52.008;5.432;2023-01-29T05:52:56;102863.00000000001;;;13.63;40.08
59654;BME280;66556;52.008;5.432;2023-01-29T05:54:32;102863.00000000001;;;14.62;38.26
59654;BME280;66556;52.008;5.432;2023-01-29T05:56:09;102864.00000000001;;;14.55;38.42
59654;BME280;66556;52.008;5.432;2023-01-29T05:59:22;102868.0;;;14.27;38.78
59654;BME280;66556;52.008;5.432;2023-01-29T06:01:07;102867.0;;;14.12;39.17
59654;BME280;66556;52.008;5.432;2023-01-29T06:02:45;102868.0;;;14.03;39.58
59654;BME280;66556;52.008;5.432;2023-01-29T06:05:57;102858.99999999999;;;14.23;38.93
59654;BME280;66556;52.008;5.432;2023-01-29T06:07:34;102854.0;;;14.09;39.14
59654;BME280;66556;52.008;5.432;2023-01-29T06:09:11;102840.00000000001;;;13.82;40.07
59654;BME280;66556;52.008;5.432;2023-01-29T06:10:48;102833.0;;;14.11;39.06
59654;BME280;66556;52.008;5.432;2023-01-29T06:14:02;102829.0;;;14.09;39.53
59654;BME280;66556;52.008;5.432;2023-01-29T06:15:39;102833.99999999999;;;13.74;39.78
59654;BME280;66556;52.008;5.432;2023-01-29T06:17:17;102834.99999999999;;;13.95;40.29
59654;BME280;66556;52.008;5.432;2023-01-29T06:20:31;102831.0;;;14.91;38.35
59654;BME280;66556;52.008;5.432;2023-01-29T06:22:08;102832.0;;;14.67;37.92
59654;BME280;66556;52.008;5.432;2023-01-29T06:23:45;102825.0;;;14.63;38.57
59654;BME280;66556;52.008;5.432;2023-01-29T06:26:58;102826.0;;;14.56;38.6
59654;BME280;66556;52.008;5.432;2023-01-29T06:28:34;102831.0;;;14.53;38.03
59654;BME280;66556;52.008;5.432;2023-01-29T06:30:12;102818.0;;;13.88;39.0
59654;BME280;66556;52.008;5.432;2023-01-29T06:31:48;102824.0;;;14.41;38.36
59654;BME280;66556;52.008;5.432;2023-01-29T06:35:02;102827.0;;;14.77;37.49
59654;BME280;66556;52.008;5.432;2023-01-29T06:36:41;102826.0;;;14.39;38.46
59654;BME280;66556;52.008;5.432;2023-01-29T06:38:17;102817.0;;;14.54;38.65
59654;BME280;66556;52.008;5.432;2023-01-29T06:41:30;102819.0;;;14.4;38.78
59654;BME280;66556;52.008;5.432;2023-01-29T06:43:06;102817.0;;;14.46;38.49
59654;BME280;66556;52.008;5.432;2023-01-29T06:44:43;102821.0;;;14.5;38.86
59654;BME280;66556;52.008;5.432;2023-01-29T06:46:20;102827.0;;;14.39;38.76
59654;BME280;66556;52.008;5.432;2023-01-29T06:49:33;102822.0;;;14.89;37.96
59654;BME280;66556;52.008;5.432;2023-01-29T06:52:47;102823.0;;;14.22;39.04
59654;BME280;66556;52.008;5.432;2023-01-29T06:55:59;102828.0;;;13.87;40.21
59654;BME280;66556;52.008;5.432;2023-01-29T06:57:36;102826.0;;;14.56;38.74
59654;BME280;66556;52.008;5.432;2023-01-29T06:59:14;102830.0;;;14.11;39.69
59654;BME280;66556;52.008;5.432;2023-01-29T07:02:28;102824.0;;;13.98;39.42
59654;BME280;66556;52.008;5.432;2023-01-29T07:04:04;102823.0;;;14.1;39.6
59654;BME280;66556;52.008;5.432;2023-01-29T07:05:41;102819.0;;;14.28;39.31
59654;BME280;66556;52.008;5.432;2023-01-29T07:07:18;102817.0;;;14.26;39.33
59654;BME280;66556;52.008;5.432;2023-01-29T07:10:31;102817.0;;;14.17;39.36
59654;BME280;66556;52.008;5.432;2023-01-29T07:12:08;102820.0;;;14.86;37.79
59654;BME280;66556;52.008;5.432;2023-01-29T07:13:45;102818.0;;;14.63;39.06
59654;BME280;66556;52.008;5.432;2023-01-29T07:16:58;102820.0;;;14.66;38.5
59654;BME280;66556;52.008;5.432;2023-01-29T07:18:36;102817.0;;;15.2;37.29
59654;BME280;66556;52.008;5.432;2023-01-29T07:20:12;102808.99999999999;;;15.62;36.37
59654;BME280;66556;52.008;5.432;2023-01-29T07:23:24;102813.00000000001;;;15.67;36.6
59654;BME280;66556;52.008;5.432;2023-01-29T07:25:01;102814.00000000001;;;15.42;36.56
59654;BME280;66556;52.008;5.432;2023-01-29T07:26:39;102811.99999999999;;;14.36;38.31
59654;BME280;66556;52.008;5.432;2023-01-29T07:28:15;102817.0;;;14.71;38.42
59654;BME280;66556;52.008;5.432;2023-01-29T07:31:29;102817.0;;;14.13;39.47
59654;BME280;66556;52.008;5.432;2023-01-29T07:33:08;102816.00000000001;;;14.27;39.31
59654;BME280;66556;52.008;5.432;2023-01-29T07:34:45;102815.00000000001;;;13.66;39.67
59654;BME280;66556;52.008;5.432;2023-01-29T07:38:00;102815.00000000001;;;14.56;38.89
59654;BME280;66556;52.008;5.432;2023-01-29T07:39:36;102805.0;;;14.6;38.39
59654;BME280;66556;52.008;5.432;2023-01-29T07:41:12;102805.0;;;14.1;38.89
59654;BME280;66556;52.008;5.432;2023-01-29T07:42:49;102817.0;;;14.21;39.28
59654;BME280;66556;52.008;5.432;2023-01-29T07:46:03;102824.0;;;14.25;38.83
59654;BME280;66556;52.008;5.432;2023-01-29T07:47:39;102831.0;;;14.36;38.86
59654;BME280;66556;52.008;5.432;2023-01-29T07:49:15;102824.0;;;14.78;38.06
59654;BME280;66556;52.008;5.432;2023-01-29T07:52:32;102817.0;;;14.24;38.92
59654;BME280;66556;52.008;5.432;2023-01-29T07:54:09;102816.00000000001;;;15.66;36.64
59654;BME280;66556;52.008;5.432;2023-01-29T07:55:45;102814.00000000001;;;15.63;36.03
59654;BME280;66556;52.008;5.432;2023-01-29T07:58:59;102805.0;;;14.87;37.85
59654;BME280;66556;52.008;5.432;2023-01-29T08:00:36;102807.0;;;14.6;37.96
59654;BME280;66556;52.008;5.432;2023-01-29T08:02:13;102800.0;;;14.77;38.18
59654;BME280;66556;52.008;5.432;2023-01-29T08:03:50;102794.0;;;14.95;37.15
59654;BME280;66556;52.008;5.432;2023-01-29T08:07:05;102784.99999999999;;;14.99;37.67
59654;BME280;66556;52.008;5.432;2023-01-29T08:08:42;102783.0;;;15.02;37.03
59654;BME280;66556;52.008;5.432;2023-01-29T08:10:19;102777.0;;;14.82;37.51
59654;BME280;66556;52.008;5.432;2023-01-29T08:13:33;102774.0;;;15.19;37.39
59654;BME280;66556;52.008;5.432;2023-01-29T08:15:10;102776.0;;;14.46;38.86
59654;BME280;66556;52.008;5.432;2023-01-29T08:16:47;102775.0;;;15.14;36.87
59654;BME280;66556;52.008;5.432;2023-01-29T08:18:24;102774.0;;;15.12;37.21
59654;BME280;66556;52.008;5.432;2023-01-29T08:21:39;102781.0;;;14.7;37.71
59654;BME280;66556;52.008;5.432;2023-01-29T08:23:15;102780.0;;;14.57;37.75
59654;BME280;66556;52.008;5.432;2023-01-29T08:24:52;102782.0;;;14.99;37.64
59654;BME280;66556;52.008;5.432;2023-01-29T08:28:05;102777.0;;;14.34;38.19
59654;BME280;66556;52.008;5.432;2023-01-29T08:29:42;102775.0;;;14.6;38.46
59654;BME280;66556;52.008;5.432;2023-01-29T08:31:19;102776.0;;;14.0;39.71
59654;BME280;66556;52.008;5.432;2023-01-29T08:34:33;102776.0;;;13.76;39.97
59654;BME280;66556;52.008;5.432;2023-01-29T08:36:10;102769.0;;;13.81;40.06
59654;BME280;66556;52.008;5.432;2023-01-29T08:37:55;102770.0;;;14.54;39.08
59654;BME280;66556;52.008;5.432;2023-01-29T08:39:32;102769.0;;;14.56;38.42
59654;BME280;66556;52.008;5.432;2023-01-29T08:42:44;102765.00000000001;;;13.88;39.49
59654;BME280;66556;52.008;5.432;2023-01-29T08:44:21;102755.0;;;13.9;40.28
59654;BME280;66556;52.008;5.432;2023-01-29T08:45:58;102749.0;;;13.54;40.54
59654;BME280;66556;52.008;5.432;2023-01-29T08:49:11;102753.0;;;13.09;41.72
59654;BME280;66556;52.008;5.432;2023-01-29T08:50:48;102742.0;;;13.72;40.56
59654;BME280;66556;52.008;5.432;2023-01-29T08:52:24;102742.0;;;13.88;40.46
59654;BME280;66556;52.008;5.432;2023-01-29T08:54:00;102739.00000000001;;;14.0;40.64
59654;BME280;66556;52.008;5.432;2023-01-29T08:57:15;102738.00000000001;;;13.89;40.92
59654;BME280;66556;52.008;5.432;2023-01-29T08:58:52;102736.99999999999;;;14.24;39.62
59654;BME280;66556;52.008;5.432;2023-01-29T09:00:29;102728.0;;;13.85;40.5
59654;BME280;66556;52.008;5.432;2023-01-29T09:03:43;102729.0;;;13.7;40.47
59654;BME280;66556;52.008;5.432;2023-01-29T09:05:19;102732.0;;;13.85;40.22
59654;BME280;66556;52.008;5.432;2023-01-29T09:06:57;102731.0;;;14.23;39.92
59654;BME280;66556;52.008;5.432;2023-01-29T09:10:11;102740.00000000001;;;14.64;39.12
59654;BME280;66556;52.008;5.432;2023-01-29T09:11:48;102740.00000000001;;;14.57;38.72
59654;BME280;66556;52.008;5.432;2023-01-29T09:13:24;102738.00000000001;;;14.96;38.68
59654;BME280;66556;52.008;5.432;2023-01-29T09:15:01;102734.99999999999;;;14.4;39.56
59654;BME280;66556;52.008;5.432;2023-01-29T09:18:15;102743.0;;;14.31;39.14
59654;BME280;66556;52.008;5.432;2023-01-29T09:19:53;102746.0;;;14.58;38.94
59654;BME280;66556;52.008;5.432;2023-01-29T09:21:30;102747.0;;;14.59;38.74
59654;BME280;66556;52.008;5.432;2023-01-29T09:24:44;102744.0;;;15.09;37.89
59654;BME280;66556;52.008;5.432;2023-01-29T09:26:21;102748.0;;;15.48;37.18
59654;BME280;66556;52.008;5.432;2023-01-29T09:27:59;102740.00000000001;;;15.23;37.15
59654;BME280;66556;52.008;5.432;2023-01-29T09:29:36;102746.0;;;14.53;38.67
59654;BME280;66556;52.008;5.432;2023-01-29T09:32:49;102742.0;;;14.93;37.74
59654;BME280;66556;52.008;5.432;2023-01-29T09:34:26;102746.0;;;14.44;38.33
59654;BME280;66556;52.008;5.432;2023-01-29T09:36:03;102741.00000000001;;;14.76;38.56
59654;BME280;66556;52.008;5.432;2023-01-29T09:39:16;102734.99999999999;;;14.82;37.71
59654;BME280;66556;52.008;5.432;2023-01-29T09:40:59;102740.00000000001;;;14.06;38.96
59654;BME280;66556;52.008;5.432;2023-01-29T09:42:43;102736.99999999999;;;14.69;38.31
59654;BME280;66556;52.008;5.432;2023-01-29T09:44:37;102734.99999999999;;;13.83;39.75
59654;BME280;66556;52.008;5.432;2023-01-29T09:46:32;102727.0;;;13.87;39.94
59654;BME280;66556;52.008;5.432;2023-01-29T09:49:51;102727.0;;;13.61;40.75
59654;BME280;66556;52.008;5.432;2023-01-29T09:51:37;102729.0;;;13.99;39.81
59654;BME280;66556;52.008;5.432;2023-01-29T09:53:19;102728.0;;;14.35;39.69
59654;BME280;66556;52.008;5.432;2023-01-29T09:55:03;102728.0;;;13.77;40.47
59654;BME280;66556;52.008;5.432;2023-01-29T09:56:44;102721.0;;;14.0;39.81
59654;BME280;66556;52.008;5.432;2023-01-29T10:00:04;102717.0;;;14.28;39.17
59654;BME280;66556;52.008;5.432;2023-01-29T10:01:46;102721.0;;;14.89;38.35
59654;BME280;66556;52.008;5.432;2023-01-29T10:03:42;102722.0;;;14.44;39.32
59654;BME280;66556;52.008;5.432;2023-01-29T10:05:34;102720.0;;;14.38;38.96
59654;BME280;66556;52.008;5.432;2023-01-29T10:07:41;102725.0;;;14.32;38.99
59654;BME280;66556;52.008;5.432;2023-01-29T10:10:01;102724.0;;;14.41;39.07
59654;BME280;66556;52.008;5.432;2023-01-29T10:12:01;102718.0;;;14.13;39.53
59654;BME280;66556;52.008;5.432;2023-01-29T10:13:50;102724.0;;;13.63;40.28
59654;BME280;66556;52.008;5.432;2023-01-29T10:15:47;102728.0;;;14.07;39.9
59654;BME280;66556;52.008;5.432;2023-01-29T10:19:42;102723.0;;;14.53;39.07
59654;BME280;66556;52.008;5.432;2023-01-29T10:23:06;102726.0;;;14.57;38.81
59654;BME280;66556;52.008;5.432;2023-01-29T10:24:57;102724.0;;;14.75;38.6
59654;BME280;66556;52.008;5.432;2023-01-29T10:26:37;102725.0;;;14.6;39.14
59654;BME280;66556;52.008;5.432;2023-01-29T10:28:17;102723.0;;;13.92;40.06
59654;BME280;66556;52.008;5.432;2023-01-29T10:31:36;102726.0;;;14.56;39.17
59654;BME280;66556;52.008;5.432;2023-01-29T10:33:23;102725.0;;;14.35;39.83
59654;BME280;66556;52.008;5.432;2023-01-29T10:35:12;102718.0;;;14.67;39.18
59654;BME280;66556;52.008;5.432;2023-01-29T10:36:58;102718.0;;;14.74;38.71
59654;BME280;66556;52.008;5.432;2023-01-29T10:38:42;102719.0;;;14.81;38.5
59654;BME280;66556;52.008;5.432;2023-01-29T10:42:07;102715.00000000001;;;14.87;38.81
59654;BME280;66556;52.008;5.432;2023-01-29T10:44:01;102715.00000000001;;;14.59;39.21
59654;BME280;66556;52.008;5.432;2023-01-29T10:45:53;102706.0;;;15.0;37.96
59654;BME280;66556;52.008;5.432;2023-01-29T10:48:29;102697.0;;;15.1;38.42
59654;BME280;66556;52.008;5.432;2023-01-29T10:50:35;102693.0;;;15.09;38.01
59654;BME280;66556;52.008;5.432;2023-01-29T10:52:34;102690.00000000001;;;15.17;38.03
59654;BME280;66556;52.008;5.432;2023-01-29T10:54:26;102683.0;;;14.77;38.53
59654;BME280;66556;52.008;5.432;2023-01-29T10:56:23;102688.00000000001;;;14.94;38.0
59654;BME280;66556;52.008;5.432;2023-01-29T10:58:12;102675.0;;;15.15;37.65
59654;BME280;66556;52.008;5.432;2023-01-29T11:00:03;102675.0;;;15.45;37.51
59654;BME280;66556;52.008;5.432;2023-01-29T11:01:44;102676.0;;;15.27;37.74
59654;BME280;66556;52.008;5.432;2023-01-29T11:05:00;102667.0;;;14.97;38.35
59654;BME280;66556;52.008;5.432;2023-01-29T11:06:37;102664.00000000001;;;14.69;38.89
59654;BME280;66556;52.008;5.432;2023-01-29T11:08:17;102663.00000000001;;;15.24;38.28
59654;BME280;66556;52.008;5.432;2023-01-29T11:09:59;102658.0;;;14.66;38.71
59654;BME280;66556;52.008;5.432;2023-01-29T11:13:20;102651.0;;;14.43;39.54